createdAt,value
2018-10-21T00:00:12.997Z,13.00
2018-10-21T00:02:41.481Z,13.10
2018-10-21T00:05:11.374Z,13.10
2018-10-21T00:07:39.850Z,13.10
2018-10-21T00:10:10.015Z,13.20
2018-10-21T00:12:38.709Z,13.10
2018-10-21T00:15:08.056Z,13.20
2018-10-21T00:17:36.988Z,13.20
2018-10-21T00:20:12.487Z,13.20
2018-10-21T00:22:41.018Z,13.20
2018-10-21T00:25:09.362Z,13.20
2018-10-21T00:27:37.921Z,13.20
2018-10-21T00:30:06.421Z,13.20
2018-10-21T00:32:54.625Z,13.20
2018-10-21T00:35:22.906Z,13.10
2018-10-21T00:37:51.290Z,13.20
2018-10-21T00:40:19.580Z,13.20
2018-10-21T00:42:54.778Z,13.20
2018-10-21T00:45:23.357Z,13.20
2018-10-21T00:47:51.775Z,13.30
2018-10-21T00:50:20.067Z,13.20
2018-10-21T00:52:48.412Z,13.20
2018-10-21T00:55:16.702Z,13.20
2018-10-21T00:57:45.024Z,13.20
2018-10-21T01:00:13.780Z,13.20
2018-10-21T01:02:42.151Z,13.30
2018-10-21T01:05:11.173Z,13.30
2018-10-21T01:07:39.639Z,13.30
2018-10-21T01:10:09.720Z,13.30
2018-10-21T01:12:38.525Z,13.30
2018-10-21T01:15:08.361Z,13.30
2018-10-21T01:17:37.073Z,13.30
2018-10-21T01:20:07.121Z,13.30
2018-10-21T01:22:35.426Z,13.30
2018-10-21T01:25:03.987Z,13.30
2018-10-21T01:27:32.414Z,13.30
2018-10-21T01:30:00.780Z,13.30
2018-10-21T01:32:29.095Z,13.30
2018-10-21T01:35:04.169Z,13.30
2018-10-21T01:37:32.482Z,13.30
2018-10-21T01:40:35.830Z,13.30
2018-10-21T01:43:04.814Z,13.40
2018-10-21T01:45:33.185Z,13.30
2018-10-21T01:48:02.956Z,13.30
2018-10-21T01:50:31.401Z,13.30
2018-10-21T01:53:00.809Z,13.30
2018-10-21T01:55:29.116Z,13.30
2018-10-21T01:57:57.996Z,13.30
2018-10-21T02:00:27.040Z,13.30
2018-10-21T02:02:55.960Z,13.30
2018-10-21T02:05:24.623Z,13.30
2018-10-21T02:07:53.380Z,13.30
2018-10-21T02:10:21.719Z,13.30
2018-10-21T02:12:50.120Z,13.30
2018-10-21T02:15:18.489Z,13.30
2018-10-21T02:17:46.830Z,13.30
2018-10-21T02:20:16.004Z,13.20
2018-10-21T02:22:45.221Z,13.30
2018-10-21T02:25:13.718Z,13.30
2018-10-21T02:27:42.714Z,13.30
2018-10-21T02:30:15.308Z,13.30
2018-10-21T02:32:44.407Z,13.30
2018-10-21T02:35:13.397Z,13.30
2018-10-21T02:37:42.085Z,13.30
2018-10-21T02:41:53.909Z,13.30
2018-10-21T02:44:22.904Z,13.30
2018-10-21T02:46:53.292Z,13.20
2018-10-21T02:49:22.040Z,13.20
2018-10-21T02:51:55.691Z,13.20
2018-10-21T02:54:33.756Z,13.20
2018-10-21T02:57:02.440Z,13.20
2018-10-21T02:59:30.964Z,13.20
2018-10-21T03:01:59.269Z,13.20
2018-10-21T03:04:27.604Z,13.20
2018-10-21T03:06:55.919Z,13.20
2018-10-21T03:09:24.312Z,13.20
2018-10-21T03:11:52.610Z,13.30
2018-10-21T03:14:21.034Z,13.20
2018-10-21T03:16:49.366Z,13.20
2018-10-21T03:19:17.764Z,13.30
2018-10-21T03:21:46.450Z,13.20
2018-10-21T03:24:14.736Z,13.20
2018-10-21T03:26:43.906Z,13.30
2018-10-21T03:29:12.252Z,13.30
2018-10-21T03:31:40.600Z,13.30
2018-10-21T03:34:09.218Z,13.20
2018-10-21T03:36:37.360Z,13.30
2018-10-21T03:39:08.028Z,13.30
2018-10-21T03:41:36.470Z,13.20
2018-10-21T03:44:04.878Z,13.30
2018-10-21T03:46:33.389Z,13.20
2018-10-21T03:49:01.792Z,13.30
2018-10-21T03:51:30.192Z,13.20
2018-10-21T03:53:59.098Z,13.20
2018-10-21T03:56:27.466Z,13.20
2018-10-21T03:58:55.821Z,13.10
2018-10-21T04:01:24.145Z,13.10
2018-10-21T04:03:52.550Z,13.10
2018-10-21T04:06:21.174Z,13.10
2018-10-21T04:08:49.532Z,13.10
2018-10-21T04:11:17.873Z,13.10
2018-10-21T04:13:46.240Z,13.10
2018-10-21T04:16:14.622Z,13.10
2018-10-21T04:18:42.917Z,13.00
2018-10-21T04:21:11.239Z,13.00
2018-10-21T04:23:39.532Z,13.00
2018-10-21T04:26:07.905Z,12.90
2018-10-21T04:28:36.244Z,12.80
2018-10-21T04:31:05.104Z,12.80
2018-10-21T04:33:39.829Z,12.80
2018-10-21T04:36:09.353Z,12.70
2018-10-21T04:39:51.255Z,12.70
2018-10-21T04:42:19.653Z,12.70
2018-10-21T04:44:48.031Z,12.70
2018-10-21T04:47:16.375Z,12.60
2018-10-21T04:49:44.666Z,12.50
2018-10-21T04:52:13.050Z,12.50
2018-10-21T04:54:41.476Z,12.50
2018-10-21T04:57:09.945Z,12.40
2018-10-21T04:59:39.534Z,12.40
2018-10-21T05:02:08.185Z,12.40
2018-10-21T05:04:36.488Z,12.40
2018-10-21T05:07:04.930Z,12.30
2018-10-21T05:09:33.308Z,12.30
2018-10-21T05:12:01.786Z,12.30
2018-10-21T05:14:30.254Z,12.30
2018-10-21T05:16:58.593Z,12.20
2018-10-21T05:19:27.015Z,12.20
2018-10-21T05:21:55.380Z,12.20
2018-10-21T05:24:23.741Z,12.10
2018-10-21T05:29:29.989Z,12.00
2018-10-21T05:31:58.297Z,12.00
2018-10-21T05:34:26.617Z,12.00
2018-10-21T05:36:54.994Z,11.90
2018-10-21T05:39:23.564Z,11.90
2018-10-21T05:41:52.054Z,11.90
2018-10-21T05:44:20.494Z,11.90
2018-10-21T05:46:50.282Z,11.90
2018-10-21T05:49:18.524Z,11.90
2018-10-21T05:51:49.364Z,11.80
2018-10-21T05:54:18.565Z,11.90
2018-10-21T05:56:48.213Z,11.90
2018-10-21T05:59:17.255Z,11.90
2018-10-21T06:01:46.320Z,11.90
2018-10-21T06:04:15.723Z,12.00
2018-10-21T06:06:44.052Z,12.00
2018-10-21T06:09:13.616Z,12.10
2018-10-21T06:11:41.933Z,12.10
2018-10-21T06:14:10.308Z,12.10
2018-10-21T06:16:43.892Z,12.10
2018-10-21T06:19:13.280Z,12.20
2018-10-21T06:21:42.765Z,12.20
2018-10-21T06:24:11.248Z,12.20
2018-10-21T06:26:39.676Z,12.30
2018-10-21T06:29:08.145Z,12.30
2018-10-21T06:31:36.549Z,12.30
2018-10-21T06:34:05.878Z,12.30
2018-10-21T06:36:34.660Z,12.40
2018-10-21T06:39:03.321Z,12.40
2018-10-21T06:41:31.772Z,12.40
2018-10-21T06:44:00.445Z,12.40
2018-10-21T06:46:29.760Z,12.40
2018-10-21T06:48:58.144Z,12.40
2018-10-21T06:51:26.505Z,12.50
2018-10-21T06:53:55.113Z,12.50
2018-10-21T06:56:23.501Z,12.50
2018-10-21T06:58:51.885Z,12.60
2018-10-21T07:01:20.390Z,12.60
2018-10-21T07:03:48.703Z,12.70
2018-10-21T07:06:20.051Z,12.60
2018-10-21T07:08:49.665Z,12.70
2018-10-21T07:11:18.117Z,12.70
2018-10-21T07:13:46.420Z,12.80
2018-10-21T07:16:14.987Z,12.80
2018-10-21T07:18:44.304Z,12.80
2018-10-21T07:21:12.880Z,12.80
2018-10-21T07:23:41.249Z,12.90
2018-10-21T07:26:09.756Z,13.00
2018-10-21T07:28:38.071Z,13.00
2018-10-21T07:31:06.450Z,13.00
2018-10-21T07:33:34.851Z,13.10
2018-10-21T07:36:03.265Z,13.10
2018-10-21T07:38:32.166Z,13.10
2018-10-21T07:41:00.501Z,13.20
2018-10-21T07:43:28.802Z,13.20
2018-10-21T07:45:57.570Z,13.20
2018-10-21T07:48:26.096Z,13.30
2018-10-21T07:50:55.512Z,13.40
2018-10-21T07:53:24.069Z,13.40
2018-10-21T07:55:52.402Z,13.40
2018-10-21T07:58:21.146Z,13.50
2018-10-21T08:00:49.636Z,13.50
2018-10-21T08:03:18.801Z,13.60
2018-10-21T08:05:58.796Z,13.60
2018-10-21T08:08:28.749Z,13.70
2018-10-21T08:10:59.967Z,13.70
2018-10-21T08:13:30.234Z,13.70
2018-10-21T08:15:59.935Z,13.80
2018-10-21T08:18:29.274Z,13.80
2018-10-21T08:20:58.191Z,13.90
2018-10-21T08:23:26.665Z,13.90
2018-10-21T08:25:56.107Z,14.00
2018-10-21T08:28:25.191Z,14.00
2018-10-21T08:30:53.981Z,14.00
2018-10-21T08:33:24.142Z,14.10
2018-10-21T08:35:52.471Z,14.20
2018-10-21T08:38:20.740Z,14.10
2018-10-21T08:40:49.278Z,14.20
2018-10-21T08:43:17.691Z,14.20
2018-10-21T08:45:46.021Z,14.30
2018-10-21T08:48:14.436Z,14.40
2018-10-21T08:50:42.978Z,14.40
2018-10-21T08:53:11.426Z,14.50
2018-10-21T08:55:39.823Z,14.50
2018-10-21T08:58:08.457Z,14.50
2018-10-21T09:00:36.822Z,14.60
2018-10-21T09:03:05.948Z,14.60
2018-10-21T09:05:34.522Z,14.60
2018-10-21T09:08:03.095Z,14.70
2018-10-21T09:10:32.379Z,14.70
2018-10-21T09:13:00.763Z,14.70
2018-10-21T09:15:29.228Z,14.80
2018-10-21T09:17:57.512Z,14.90
2018-10-21T09:20:25.817Z,14.90
2018-10-21T09:22:54.143Z,14.90
2018-10-21T09:25:22.854Z,15.00
2018-10-21T09:27:51.162Z,15.00
2018-10-21T09:30:19.460Z,15.00
2018-10-21T09:32:47.781Z,15.10
2018-10-21T09:35:17.599Z,15.10
2018-10-21T09:37:46.433Z,15.10
2018-10-21T09:40:19.373Z,15.20
2018-10-21T09:42:48.413Z,15.20
2018-10-21T09:45:18.235Z,15.30
2018-10-21T09:47:46.679Z,15.30
2018-10-21T09:50:15.317Z,15.40
2018-10-21T09:52:43.738Z,15.40
2018-10-21T09:55:17.611Z,15.50
2018-10-21T09:57:46.614Z,15.50
2018-10-21T10:01:18.852Z,15.60
2018-10-21T10:03:47.358Z,15.50
2018-10-21T10:06:22.701Z,15.70
2018-10-21T10:08:51.127Z,15.70
2018-10-21T10:11:19.534Z,15.70
2018-10-21T10:13:47.923Z,15.70
2018-10-21T10:16:16.509Z,15.70
2018-10-21T10:18:45.015Z,15.80
2018-10-21T10:21:13.520Z,15.80
2018-10-21T10:23:42.102Z,15.90
2018-10-21T10:26:10.554Z,15.90
2018-10-21T10:28:39.052Z,15.90
2018-10-21T10:31:07.597Z,15.90
2018-10-21T10:33:36.052Z,16.10
2018-10-21T10:36:04.997Z,16.10
2018-10-21T10:38:33.681Z,16.10
2018-10-21T10:41:02.082Z,16.10
2018-10-21T10:43:30.675Z,16.10
2018-10-21T10:45:59.191Z,16.10
2018-10-21T10:48:27.650Z,16.10
2018-10-21T10:50:56.192Z,16.20
2018-10-21T10:53:24.537Z,16.20
2018-10-21T10:55:53.538Z,16.10
2018-10-21T10:58:21.993Z,16.10
2018-10-21T11:00:50.492Z,16.00
2018-10-21T11:03:18.875Z,16.10
2018-10-21T11:05:47.296Z,16.10
2018-10-21T11:08:15.725Z,16.20
2018-10-21T11:10:44.505Z,16.20
2018-10-21T11:13:12.943Z,16.30
2018-10-21T11:15:41.436Z,16.30
2018-10-21T11:18:09.890Z,16.30
2018-10-21T11:20:38.285Z,16.40
2018-10-21T11:23:07.148Z,16.50
2018-10-21T11:25:35.948Z,16.50
2018-10-21T11:28:05.129Z,16.60
2018-10-21T11:30:33.634Z,16.60
2018-10-21T11:33:02.137Z,16.70
2018-10-21T11:35:30.700Z,16.70
2018-10-21T11:37:59.348Z,16.80
2018-10-21T11:40:28.002Z,16.80
2018-10-21T11:42:56.319Z,16.90
2018-10-21T11:45:24.786Z,17.00
2018-10-21T11:47:53.470Z,16.90
2018-10-21T11:50:22.026Z,17.00
2018-10-21T11:52:50.865Z,17.00
2018-10-21T11:55:19.568Z,17.00
2018-10-21T11:57:47.922Z,17.10
2018-10-21T12:00:16.383Z,17.10
2018-10-21T12:02:44.890Z,17.10
2018-10-21T12:05:13.375Z,17.20
2018-10-21T12:07:42.000Z,17.20
2018-10-21T12:10:10.464Z,17.20
2018-10-21T12:12:39.180Z,17.20
2018-10-21T12:15:07.706Z,17.30
2018-10-21T12:17:36.670Z,17.30
2018-10-21T12:20:05.117Z,17.30
2018-10-21T12:22:34.005Z,17.30
2018-10-21T12:25:03.290Z,17.30
2018-10-21T12:27:31.735Z,17.30
2018-10-21T12:30:00.384Z,17.30
2018-10-21T12:32:28.760Z,17.30
2018-10-21T12:34:57.100Z,17.40
2018-10-21T12:37:25.696Z,17.40
2018-10-21T12:39:54.278Z,17.40
2018-10-21T12:42:22.871Z,17.40
2018-10-21T12:44:51.599Z,17.30
2018-10-21T12:47:20.082Z,17.50
2018-10-21T12:49:48.476Z,17.50
2018-10-21T12:52:17.362Z,17.50
2018-10-21T12:54:45.721Z,17.50
2018-10-21T12:57:14.093Z,17.50
2018-10-21T12:59:42.554Z,17.60
2018-10-21T13:02:10.914Z,17.60
2018-10-21T13:04:39.383Z,17.60
2018-10-21T13:07:07.761Z,17.60
2018-10-21T13:09:36.178Z,17.60
2018-10-21T13:12:05.053Z,17.60
2018-10-21T13:14:33.730Z,17.60
2018-10-21T13:17:02.180Z,17.60
2018-10-21T13:19:30.755Z,17.60
2018-10-21T13:21:59.188Z,17.70
2018-10-21T13:24:27.772Z,17.60
2018-10-21T13:26:56.220Z,17.60
2018-10-21T13:29:24.615Z,17.70
2018-10-21T13:31:53.138Z,17.70
2018-10-21T13:34:21.590Z,17.70
2018-10-21T13:36:50.074Z,17.70
2018-10-21T13:39:18.582Z,17.60
2018-10-21T13:41:47.300Z,17.50
2018-10-21T13:44:15.748Z,17.60
2018-10-21T13:46:44.178Z,17.50
2018-10-21T13:49:12.544Z,17.50
2018-10-21T13:51:41.230Z,17.50
2018-10-21T13:54:09.782Z,17.50
2018-10-21T13:56:38.418Z,17.40
2018-10-21T13:59:07.258Z,17.50
2018-10-21T14:01:42.045Z,17.50
2018-10-21T14:04:10.833Z,17.50
2018-10-21T14:06:40.061Z,17.50
2018-10-21T14:09:11.430Z,17.60
2018-10-21T14:11:40.132Z,17.60
2018-10-21T14:14:09.693Z,17.50
2018-10-21T14:16:38.299Z,17.60
2018-10-21T14:19:07.145Z,17.50
2018-10-21T14:21:35.588Z,17.50
2018-10-21T14:24:04.162Z,17.50
2018-10-21T14:26:32.616Z,17.50
2018-10-21T14:29:01.060Z,17.40
2018-10-21T14:31:30.340Z,17.40
2018-10-21T14:33:59.211Z,17.40
2018-10-21T14:36:27.699Z,17.40
2018-10-21T14:38:56.903Z,17.40
2018-10-21T14:41:25.332Z,17.40
2018-10-21T14:43:53.697Z,17.40
2018-10-21T14:46:22.342Z,17.40
2018-10-21T14:48:50.754Z,17.40
2018-10-21T14:51:19.375Z,17.40
2018-10-21T14:53:47.732Z,17.40
2018-10-21T14:56:16.238Z,17.40
2018-10-21T14:58:44.726Z,17.40
2018-10-21T15:01:13.136Z,17.40
2018-10-21T15:03:41.464Z,17.30
2018-10-21T15:06:09.878Z,17.30
2018-10-21T15:08:38.361Z,17.20
2018-10-21T15:11:07.389Z,17.20
2018-10-21T15:13:36.221Z,17.20
2018-10-21T15:16:04.784Z,17.20
2018-10-21T15:18:33.527Z,17.20
2018-10-21T15:21:01.961Z,17.20
2018-10-21T15:23:30.380Z,17.20
2018-10-21T15:25:58.780Z,17.10
2018-10-21T15:28:27.154Z,17.10
2018-10-21T15:30:55.769Z,17.10
2018-10-21T15:33:24.085Z,17.10
2018-10-21T15:35:52.425Z,17.10
2018-10-21T15:38:20.912Z,17.10
2018-10-21T15:40:49.364Z,17.10
2018-10-21T15:43:17.833Z,17.10
2018-10-21T15:45:46.211Z,17.10
2018-10-21T15:48:14.999Z,17.00
2018-10-21T15:50:43.401Z,17.10
2018-10-21T15:53:11.752Z,17.10
2018-10-21T15:55:42.436Z,17.00
2018-10-21T15:58:11.016Z,16.90
2018-10-21T16:00:39.389Z,16.90
2018-10-21T16:03:07.733Z,16.80
2018-10-21T16:05:36.173Z,16.80
2018-10-21T16:08:04.776Z,16.70
2018-10-21T16:10:33.330Z,16.70
2018-10-21T16:13:02.335Z,16.60
2018-10-21T16:15:30.804Z,16.60
2018-10-21T16:17:59.177Z,16.50
2018-10-21T16:20:27.529Z,16.50
2018-10-21T16:22:55.897Z,16.40
2018-10-21T16:25:24.288Z,16.30
2018-10-21T16:27:52.678Z,16.30
2018-10-21T16:30:21.117Z,16.20
2018-10-21T16:32:49.655Z,16.20
2018-10-21T16:35:17.900Z,16.10
2018-10-21T16:37:46.599Z,16.10
2018-10-21T16:40:16.286Z,16.00
2018-10-21T16:42:44.744Z,15.90
2018-10-21T16:45:19.960Z,15.90
2018-10-21T16:47:48.403Z,15.80
2018-10-21T16:50:17.801Z,15.80
2018-10-21T16:52:47.083Z,15.70
2018-10-21T16:55:16.364Z,15.70
2018-10-21T16:57:44.757Z,15.60
2018-10-21T17:00:14.715Z,15.60
2018-10-21T17:02:43.415Z,15.50
2018-10-21T17:05:12.217Z,15.50
2018-10-21T17:07:40.520Z,15.50
2018-10-21T17:10:09.933Z,15.40
2018-10-21T17:12:38.122Z,15.40
2018-10-21T17:15:07.486Z,15.30
2018-10-21T17:17:36.176Z,15.30
2018-10-21T17:20:05.682Z,15.20
2018-10-21T17:22:34.186Z,15.30
2018-10-21T17:25:02.617Z,15.20
2018-10-21T17:27:30.923Z,15.20
2018-10-21T17:29:59.495Z,15.10
2018-10-21T17:32:27.829Z,15.10
2018-10-21T17:34:56.194Z,15.00
2018-10-21T17:37:24.677Z,15.00
2018-10-21T17:39:53.120Z,14.90
2018-10-21T17:42:21.504Z,14.90
2018-10-21T17:44:49.868Z,14.90
2018-10-21T17:47:18.169Z,14.80
2018-10-21T17:49:46.586Z,14.80
2018-10-21T17:52:15.014Z,14.80
2018-10-21T17:54:43.278Z,14.70
2018-10-21T17:57:11.565Z,14.70
2018-10-21T17:59:39.905Z,14.70
2018-10-21T18:02:08.229Z,14.60
2018-10-21T18:04:36.732Z,14.60
2018-10-21T18:07:05.613Z,14.50
2018-10-21T18:09:34.001Z,14.50
2018-10-21T18:12:02.408Z,14.50
2018-10-21T18:14:30.852Z,14.50
2018-10-21T18:17:00.192Z,14.50
2018-10-21T18:19:28.510Z,14.40
2018-10-21T18:21:56.877Z,14.40
2018-10-21T18:24:25.428Z,14.40
2018-10-21T18:26:53.805Z,14.40
2018-10-21T18:29:22.092Z,14.30
2018-10-21T18:31:50.387Z,14.30
2018-10-21T18:34:18.683Z,14.30
2018-10-21T18:36:47.001Z,14.30
2018-10-21T18:39:15.332Z,14.30
2018-10-21T18:41:43.609Z,14.20
2018-10-21T18:44:11.901Z,14.20
2018-10-21T18:46:40.198Z,14.20
2018-10-21T18:49:08.613Z,14.20
2018-10-21T18:51:36.963Z,14.10
2018-10-21T18:54:05.957Z,14.10
2018-10-21T18:56:34.297Z,14.20
2018-10-21T18:59:02.803Z,14.20
2018-10-21T19:01:32.024Z,14.30
2018-10-21T19:04:00.512Z,14.30
2018-10-21T19:06:28.924Z,14.30
2018-10-21T19:08:57.627Z,14.40
2018-10-21T19:11:26.083Z,14.40
2018-10-21T19:13:54.425Z,14.40
2018-10-21T19:16:22.781Z,14.40
2018-10-21T19:18:51.283Z,14.40
2018-10-21T19:21:19.676Z,14.40
2018-10-21T19:23:54.849Z,14.40
2018-10-21T19:26:23.250Z,14.40
2018-10-21T19:28:51.683Z,14.30
2018-10-21T19:31:19.978Z,14.30
2018-10-21T19:33:48.338Z,14.30
2018-10-21T19:36:16.641Z,14.30
2018-10-21T19:38:45.034Z,14.20
2018-10-21T19:41:13.541Z,14.20
2018-10-21T19:43:41.937Z,14.10
2018-10-21T19:46:10.289Z,14.10
2018-10-21T19:48:38.526Z,14.00
2018-10-21T19:51:07.157Z,14.00
2018-10-21T19:53:35.582Z,13.90
2018-10-21T19:56:04.139Z,13.90
2018-10-21T19:58:32.532Z,13.80
2018-10-21T20:01:00.984Z,13.80
2018-10-21T20:03:29.329Z,13.80
2018-10-21T20:05:57.758Z,13.70
2018-10-21T20:08:26.793Z,13.70
2018-10-21T20:10:55.300Z,13.60
2018-10-21T20:13:23.976Z,13.60
2018-10-21T20:15:52.361Z,13.60
2018-10-21T20:18:20.914Z,13.60
2018-10-21T20:20:49.677Z,13.50
2018-10-21T20:23:18.045Z,13.50
2018-10-21T20:25:46.971Z,13.50
2018-10-21T20:28:15.468Z,13.40
2018-10-21T20:30:44.287Z,13.40
2018-10-21T20:33:13.404Z,13.40
2018-10-21T20:35:41.781Z,13.40
2018-10-21T20:38:10.979Z,13.40
2018-10-21T20:40:39.321Z,13.40
2018-10-21T20:43:07.708Z,13.30
2018-10-21T20:45:36.527Z,13.30
2018-10-21T20:48:05.048Z,13.30
2018-10-21T20:50:33.491Z,13.30
2018-10-21T20:53:01.884Z,13.30
2018-10-21T20:55:30.483Z,13.30
2018-10-21T20:57:58.832Z,13.30
2018-10-21T21:00:27.205Z,13.30
2018-10-21T21:02:55.489Z,13.30
2018-10-21T21:05:23.791Z,13.30
2018-10-21T21:07:52.087Z,13.30
2018-10-21T21:10:20.446Z,13.30
2018-10-21T21:12:48.719Z,13.30
2018-10-21T21:15:17.063Z,13.40
2018-10-21T21:17:45.368Z,13.40
2018-10-21T21:20:13.776Z,13.40
2018-10-21T21:22:42.106Z,13.40
2018-10-21T21:25:10.488Z,13.30
2018-10-21T21:27:38.902Z,13.40
2018-10-21T21:30:07.448Z,13.40
2018-10-21T21:32:35.876Z,13.30
2018-10-21T21:35:04.748Z,13.40
2018-10-21T21:37:33.912Z,13.40
2018-10-21T21:40:02.433Z,13.40
2018-10-21T21:42:30.742Z,13.40
2018-10-21T21:44:59.054Z,13.50
2018-10-21T21:47:27.357Z,13.50
2018-10-21T21:49:55.828Z,13.50
2018-10-21T21:52:24.192Z,13.60
2018-10-21T21:54:52.460Z,13.60
2018-10-21T21:57:20.863Z,13.70
2018-10-21T21:59:49.233Z,13.70
2018-10-21T22:02:17.612Z,13.80
2018-10-21T22:04:46.154Z,13.90
2018-10-21T22:07:14.596Z,14.00
2018-10-21T22:09:43.054Z,14.00
2018-10-21T22:12:11.497Z,14.10
2018-10-21T22:14:39.820Z,14.20
2018-10-21T22:17:08.184Z,14.30
2018-10-21T22:19:36.632Z,14.40
2018-10-21T22:22:05.168Z,14.40
2018-10-21T22:24:33.619Z,14.50
2018-10-21T22:27:02.012Z,14.50
2018-10-21T22:29:31.177Z,14.60
2018-10-21T22:31:59.529Z,14.60
2018-10-21T22:34:28.097Z,14.70
2018-10-21T22:36:56.445Z,14.80
2018-10-21T22:39:24.820Z,14.80
2018-10-21T22:41:53.228Z,14.90
2018-10-21T22:44:21.597Z,14.90
2018-10-21T22:46:50.163Z,15.00
2018-10-21T22:49:18.463Z,15.10
2018-10-21T22:51:46.935Z,15.10
2018-10-21T22:54:15.365Z,15.10
2018-10-21T22:56:43.720Z,15.20
2018-10-21T22:59:12.136Z,15.30
2018-10-21T23:01:40.493Z,15.30
2018-10-21T23:04:08.897Z,15.40
2018-10-21T23:06:37.152Z,15.50
2018-10-21T23:09:09.112Z,15.50
2018-10-21T23:11:37.513Z,15.60
2018-10-21T23:14:06.320Z,15.60
2018-10-21T23:16:34.719Z,15.60
2018-10-21T23:19:14.399Z,15.70
2018-10-21T23:21:42.969Z,15.70
2018-10-21T23:24:11.370Z,15.70
2018-10-21T23:26:39.699Z,15.70
2018-10-21T23:29:08.157Z,15.80
2018-10-21T23:31:36.461Z,15.80
2018-10-21T23:34:05.415Z,15.80
2018-10-21T23:36:33.924Z,15.80
2018-10-21T23:39:02.371Z,15.80
2018-10-21T23:41:30.724Z,15.80
2018-10-21T23:43:59.101Z,15.80
2018-10-21T23:46:27.422Z,15.80
2018-10-21T23:48:55.975Z,15.80
2018-10-21T23:51:24.244Z,15.80
2018-10-21T23:53:52.630Z,15.80
2018-10-21T23:56:21.223Z,15.80
2018-10-21T23:58:49.781Z,15.80
